sensor_id;sensor_type;location;lat;lon;timestamp;P1;durP1;ratioP1;P2;durP2;ratioP2
7166;SDS011;3625;51.762;14.320;2023-04-24T00:00:57;3.80;;;3.50;;
7166;SDS011;3625;51.762;14.320;2023-04-24T00:03:27;3.53;;;3.20;;
7166;SDS011;3625;51.762;14.320;2023-04-24T00:05:56;3.60;;;3.30;;
7166;SDS011;3625;51.762;14.320;2023-04-24T00:08:26;3.70;;;3.40;;
7166;SDS011;3625;51.762;14.320;2023-04-24T00:10:55;4.17;;;3.23;;
7166;SDS011;3625;51.762;14.320;2023-04-24T00:13:24;3.20;;;2.90;;
7166;SDS011;3625;51.762;14.320;2023-04-24T00:15:54;3.67;;;3.37;;
7166;SDS011;3625;51.762;14.320;2023-04-24T00:18:23;3.70;;;2.97;;
7166;SDS011;3625;51.762;14.320;2023-04-24T00:20:52;3.80;;;3.50;;
7166;SDS011;3625;51.762;14.320;2023-04-24T00:23:21;3.63;;;3.00;;
7166;SDS011;3625;51.762;14.320;2023-04-24T00:25:51;5.37;;;3.50;;
7166;SDS011;3625;51.762;14.320;2023-04-24T00:28:19;3.13;;;2.93;;
7166;SDS011;3625;51.762;14.320;2023-04-24T00:30:48;3.20;;;2.90;;
7166;SDS011;3625;51.762;14.320;2023-04-24T00:33:18;3.63;;;3.33;;
7166;SDS011;3625;51.762;14.320;2023-04-24T00:35:46;3.73;;;3.47;;
7166;SDS011;3625;51.762;14.320;2023-04-24T00:38:15;5.10;;;3.43;;
7166;SDS011;3625;51.762;14.320;2023-04-24T00:40:44;4.27;;;3.90;;
7166;SDS011;3625;51.762;14.320;2023-04-24T00:43:15;3.33;;;3.03;;
7166;SDS011;3625;51.762;14.320;2023-04-24T00:45:44;4.37;;;3.80;;
7166;SDS011;3625;51.762;14.320;2023-04-24T00:48:13;4.10;;;3.70;;
7166;SDS011;3625;51.762;14.320;2023-04-24T00:50:43;3.63;;;3.33;;
7166;SDS011;3625;51.762;14.320;2023-04-24T00:53:13;4.00;;;3.70;;
7166;SDS011;3625;51.762;14.320;2023-04-24T00:55:42;3.57;;;3.27;;
7166;SDS011;3625;51.762;14.320;2023-04-24T00:58:12;3.67;;;3.37;;
7166;SDS011;3625;51.762;14.320;2023-04-24T01:00:42;3.67;;;3.37;;
7166;SDS011;3625;51.762;14.320;2023-04-24T01:03:12;3.93;;;3.57;;
7166;SDS011;3625;51.762;14.320;2023-04-24T01:05:41;4.33;;;3.90;;
7166;SDS011;3625;51.762;14.320;2023-04-24T01:08:10;4.20;;;3.90;;
7166;SDS011;3625;51.762;14.320;2023-04-24T01:10:39;4.30;;;3.83;;
7166;SDS011;3625;51.762;14.320;2023-04-24T01:13:10;4.13;;;3.83;;
7166;SDS011;3625;51.762;14.320;2023-04-24T01:15:39;3.67;;;3.37;;
7166;SDS011;3625;51.762;14.320;2023-04-24T01:18:09;3.70;;;3.43;;
7166;SDS011;3625;51.762;14.320;2023-04-24T01:20:39;4.30;;;3.90;;
7166;SDS011;3625;51.762;14.320;2023-04-24T01:23:11;6.87;;;4.03;;
7166;SDS011;3625;51.762;14.320;2023-04-24T01:25:40;4.00;;;3.67;;
7166;SDS011;3625;51.762;14.320;2023-04-24T01:28:09;4.73;;;4.27;;
7166;SDS011;3625;51.762;14.320;2023-04-24T01:30:39;4.53;;;4.03;;
7166;SDS011;3625;51.762;14.320;2023-04-24T01:33:07;4.43;;;4.03;;
7166;SDS011;3625;51.762;14.320;2023-04-24T01:35:36;5.13;;;3.97;;
7166;SDS011;3625;51.762;14.320;2023-04-24T01:38:06;4.43;;;4.13;;
7166;SDS011;3625;51.762;14.320;2023-04-24T01:40:36;4.70;;;4.27;;
7166;SDS011;3625;51.762;14.320;2023-04-24T01:43:05;4.50;;;4.10;;
7166;SDS011;3625;51.762;14.320;2023-04-24T01:45:34;4.23;;;3.83;;
7166;SDS011;3625;51.762;14.320;2023-04-24T01:48:03;4.70;;;4.30;;
7166;SDS011;3625;51.762;14.320;2023-04-24T01:50:32;4.40;;;3.97;;
7166;SDS011;3625;51.762;14.320;2023-04-24T01:53:02;4.37;;;4.00;;
7166;SDS011;3625;51.762;14.320;2023-04-24T01:55:31;4.73;;;4.07;;
7166;SDS011;3625;51.762;14.320;2023-04-24T01:58:02;4.57;;;4.17;;
7166;SDS011;3625;51.762;14.320;2023-04-24T02:00:31;4.20;;;3.77;;
7166;SDS011;3625;51.762;14.320;2023-04-24T02:03:00;6.03;;;4.40;;
7166;SDS011;3625;51.762;14.320;2023-04-24T02:05:29;4.53;;;4.13;;
7166;SDS011;3625;51.762;14.320;2023-04-24T02:07:58;4.50;;;3.57;;
7166;SDS011;3625;51.762;14.320;2023-04-24T02:10:27;4.23;;;3.70;;
7166;SDS011;3625;51.762;14.320;2023-04-24T02:12:57;4.70;;;4.30;;
7166;SDS011;3625;51.762;14.320;2023-04-24T02:15:28;4.70;;;4.20;;
7166;SDS011;3625;51.762;14.320;2023-04-24T02:17:57;4.80;;;4.40;;
7166;SDS011;3625;51.762;14.320;2023-04-24T02:20:26;4.53;;;4.13;;
7166;SDS011;3625;51.762;14.320;2023-04-24T02:22:55;4.50;;;4.10;;
7166;SDS011;3625;51.762;14.320;2023-04-24T02:25:23;4.30;;;3.90;;
7166;SDS011;3625;51.762;14.320;2023-04-24T02:27:54;4.60;;;4.20;;
7166;SDS011;3625;51.762;14.320;2023-04-24T02:30:23;4.73;;;4.10;;
7166;SDS011;3625;51.762;14.320;2023-04-24T02:32:53;3.87;;;3.57;;
7166;SDS011;3625;51.762;14.320;2023-04-24T02:35:22;5.00;;;4.13;;
7166;SDS011;3625;51.762;14.320;2023-04-24T02:37:50;3.77;;;3.47;;
7166;SDS011;3625;51.762;14.320;2023-04-24T02:40:19;4.47;;;4.07;;
7166;SDS011;3625;51.762;14.320;2023-04-24T02:42:48;4.73;;;4.37;;
7166;SDS011;3625;51.762;14.320;2023-04-24T02:45:17;4.87;;;4.43;;
7166;SDS011;3625;51.762;14.320;2023-04-24T02:47:45;5.27;;;4.40;;
7166;SDS011;3625;51.762;14.320;2023-04-24T02:50:16;5.10;;;4.60;;
7166;SDS011;3625;51.762;14.320;2023-04-24T02:52:44;4.87;;;4.47;;
7166;SDS011;3625;51.762;14.320;2023-04-24T02:55:13;5.57;;;5.07;;
7166;SDS011;3625;51.762;14.320;2023-04-24T02:57:42;5.17;;;4.77;;
7166;SDS011;3625;51.762;14.320;2023-04-24T03:00:11;5.10;;;4.40;;
7166;SDS011;3625;51.762;14.320;2023-04-24T03:02:40;4.63;;;4.23;;
7166;SDS011;3625;51.762;14.320;2023-04-24T03:05:09;5.67;;;4.50;;
7166;SDS011;3625;51.762;14.320;2023-04-24T03:07:40;5.10;;;4.70;;
7166;SDS011;3625;51.762;14.320;2023-04-24T03:10:09;5.10;;;4.60;;
7166;SDS011;3625;51.762;14.320;2023-04-24T03:12:38;4.80;;;4.40;;
7166;SDS011;3625;51.762;14.320;2023-04-24T03:15:07;5.33;;;4.83;;
7166;SDS011;3625;51.762;14.320;2023-04-24T03:17:37;4.43;;;4.13;;
7166;SDS011;3625;51.762;14.320;2023-04-24T03:20:06;5.07;;;4.40;;
7166;SDS011;3625;51.762;14.320;2023-04-24T03:22:36;4.70;;;4.30;;
7166;SDS011;3625;51.762;14.320;2023-04-24T03:25:08;5.03;;;4.60;;
7166;SDS011;3625;51.762;14.320;2023-04-24T03:27:37;5.97;;;5.13;;
7166;SDS011;3625;51.762;14.320;2023-04-24T03:30:27;5.93;;;4.77;;
7166;SDS011;3625;51.762;14.320;2023-04-24T03:32:59;5.93;;;4.87;;
7166;SDS011;3625;51.762;14.320;2023-04-24T03:35:31;5.60;;;5.10;;
7166;SDS011;3625;51.762;14.320;2023-04-24T03:38:03;5.27;;;4.77;;
7166;SDS011;3625;51.762;14.320;2023-04-24T03:40:51;5.40;;;4.90;;
7166;SDS011;3625;51.762;14.320;2023-04-24T03:43:36;6.87;;;5.00;;
7166;SDS011;3625;51.762;14.320;2023-04-24T03:46:06;5.07;;;4.50;;
7166;SDS011;3625;51.762;14.320;2023-04-24T03:48:40;6.30;;;5.80;;
7166;SDS011;3625;51.762;14.320;2023-04-24T03:51:09;5.40;;;4.90;;
7166;SDS011;3625;51.762;14.320;2023-04-24T03:53:42;5.70;;;5.13;;
7166;SDS011;3625;51.762;14.320;2023-04-24T03:56:15;6.33;;;5.40;;
7166;SDS011;3625;51.762;14.320;2023-04-24T03:58:45;4.67;;;4.27;;
7166;SDS011;3625;51.762;14.320;2023-04-24T04:01:14;5.37;;;4.87;;
7166;SDS011;3625;51.762;14.320;2023-04-24T04:03:48;5.20;;;4.77;;
7166;SDS011;3625;51.762;14.320;2023-04-24T04:06:22;7.07;;;5.77;;
7166;SDS011;3625;51.762;14.320;2023-04-24T04:08:52;5.13;;;4.43;;
7166;SDS011;3625;51.762;14.320;2023-04-24T04:11:23;6.07;;;5.37;;
7166;SDS011;3625;51.762;14.320;2023-04-24T04:13:52;5.30;;;4.60;;
7166;SDS011;3625;51.762;14.320;2023-04-24T04:16:21;7.07;;;4.97;;
7166;SDS011;3625;51.762;14.320;2023-04-24T04:18:55;6.57;;;5.03;;
7166;SDS011;3625;51.762;14.320;2023-04-24T04:21:25;5.03;;;4.53;;
7166;SDS011;3625;51.762;14.320;2023-04-24T04:24:03;5.93;;;5.17;;
7166;SDS011;3625;51.762;14.320;2023-04-24T04:26:39;5.63;;;5.10;;
7166;SDS011;3625;51.762;14.320;2023-04-24T04:29:11;5.80;;;4.73;;
7166;SDS011;3625;51.762;14.320;2023-04-24T04:31:42;4.40;;;4.00;;
7166;SDS011;3625;51.762;14.320;2023-04-24T04:34:29;6.07;;;4.30;;
7166;SDS011;3625;51.762;14.320;2023-04-24T04:36:59;4.80;;;4.40;;
7166;SDS011;3625;51.762;14.320;2023-04-24T04:39:49;7.57;;;4.90;;
7166;SDS011;3625;51.762;14.320;2023-04-24T04:42:24;4.53;;;4.13;;
7166;SDS011;3625;51.762;14.320;2023-04-24T04:44:53;5.03;;;4.40;;
7166;SDS011;3625;51.762;14.320;2023-04-24T04:47:29;5.50;;;3.93;;
7166;SDS011;3625;51.762;14.320;2023-04-24T04:49:59;4.65;;;4.15;;
7166;SDS011;3625;51.762;14.320;2023-04-24T04:52:31;4.33;;;3.93;;
7166;SDS011;3625;51.762;14.320;2023-04-24T04:55:12;5.00;;;4.13;;
7166;SDS011;3625;51.762;14.320;2023-04-24T04:58:01;3.70;;;3.23;;
7166;SDS011;3625;51.762;14.320;2023-04-24T05:00:45;4.07;;;3.30;;
7166;SDS011;3625;51.762;14.320;2023-04-24T05:03:38;4.35;;;3.95;;
7166;SDS011;3625;51.762;14.320;2023-04-24T05:06:10;4.60;;;4.10;;
7166;SDS011;3625;51.762;14.320;2023-04-24T05:08:39;6.10;;;3.58;;
7166;SDS011;3625;51.762;14.320;2023-04-24T05:11:14;4.13;;;3.73;;
7166;SDS011;3625;51.762;14.320;2023-04-24T05:13:44;5.07;;;3.60;;
7166;SDS011;3625;51.762;14.320;2023-04-24T05:16:26;3.80;;;3.10;;
7166;SDS011;3625;51.762;14.320;2023-04-24T05:18:55;3.97;;;3.57;;
7166;SDS011;3625;51.762;14.320;2023-04-24T05:21:29;3.78;;;3.47;;
7166;SDS011;3625;51.762;14.320;2023-04-24T05:23:59;3.95;;;3.22;;
7166;SDS011;3625;51.762;14.320;2023-04-24T05:26:46;4.65;;;3.45;;
7166;SDS011;3625;51.762;14.320;2023-04-24T05:29:21;4.47;;;3.70;;
7166;SDS011;3625;51.762;14.320;2023-04-24T05:31:49;3.87;;;2.80;;
7166;SDS011;3625;51.762;14.320;2023-04-24T05:34:19;3.60;;;3.05;;
7166;SDS011;3625;51.762;14.320;2023-04-24T05:36:52;5.45;;;3.30;;
7166;SDS011;3625;51.762;14.320;2023-04-24T05:39:21;4.40;;;3.03;;
7166;SDS011;3625;51.762;14.320;2023-04-24T05:41:52;3.40;;;3.10;;
7166;SDS011;3625;51.762;14.320;2023-04-24T05:44:25;4.43;;;2.97;;
7166;SDS011;3625;51.762;14.320;2023-04-24T05:46:54;4.65;;;3.08;;
7166;SDS011;3625;51.762;14.320;2023-04-24T05:49:24;2.92;;;2.50;;
7166;SDS011;3625;51.762;14.320;2023-04-24T05:51:54;3.17;;;2.80;;
7166;SDS011;3625;51.762;14.320;2023-04-24T05:54:23;2.75;;;2.50;;
7166;SDS011;3625;51.762;14.320;2023-04-24T05:56:52;2.72;;;2.42;;
7166;SDS011;3625;51.762;14.320;2023-04-24T05:59:33;2.40;;;2.20;;
7166;SDS011;3625;51.762;14.320;2023-04-24T06:02:04;2.85;;;2.47;;
7166;SDS011;3625;51.762;14.320;2023-04-24T06:04:33;3.03;;;2.35;;
7166;SDS011;3625;51.762;14.320;2023-04-24T06:07:03;3.65;;;2.60;;
7166;SDS011;3625;51.762;14.320;2023-04-24T06:10:07;2.40;;;1.92;;
7166;SDS011;3625;51.762;14.320;2023-04-24T06:12:41;2.63;;;2.10;;
7166;SDS011;3625;51.762;14.320;2023-04-24T06:15:16;4.43;;;1.80;;
7166;SDS011;3625;51.762;14.320;2023-04-24T06:17:57;1.60;;;1.40;;
7166;SDS011;3625;51.762;14.320;2023-04-24T06:20:26;1.38;;;1.27;;
7166;SDS011;3625;51.762;14.320;2023-04-24T06:22:55;1.70;;;1.30;;
7166;SDS011;3625;51.762;14.320;2023-04-24T06:25:24;2.20;;;1.30;;
7166;SDS011;3625;51.762;14.320;2023-04-24T06:27:55;1.45;;;1.35;;
7166;SDS011;3625;51.762;14.320;2023-04-24T06:30:25;1.40;;;1.30;;
7166;SDS011;3625;51.762;14.320;2023-04-24T06:32:54;1.40;;;1.30;;
7166;SDS011;3625;51.762;14.320;2023-04-24T06:35:35;2.63;;;1.20;;
7166;SDS011;3625;51.762;14.320;2023-04-24T06:38:05;1.33;;;1.23;;
7166;SDS011;3625;51.762;14.320;2023-04-24T06:40:34;1.45;;;1.17;;
7166;SDS011;3625;51.762;14.320;2023-04-24T06:43:03;1.45;;;1.20;;
7166;SDS011;3625;51.762;14.320;2023-04-24T06:45:34;2.42;;;1.17;;
7166;SDS011;3625;51.762;14.320;2023-04-24T06:48:02;2.08;;;1.10;;
7166;SDS011;3625;51.762;14.320;2023-04-24T06:50:31;1.35;;;1.10;;
7166;SDS011;3625;51.762;14.320;2023-04-24T06:53:00;1.00;;;1.00;;
7166;SDS011;3625;51.762;14.320;2023-04-24T06:55:29;1.35;;;1.25;;
7166;SDS011;3625;51.762;14.320;2023-04-24T06:57:57;1.20;;;1.10;;
7166;SDS011;3625;51.762;14.320;2023-04-24T07:00:26;4.25;;;1.35;;
7166;SDS011;3625;51.762;14.320;2023-04-24T07:02:57;1.35;;;1.25;;
7166;SDS011;3625;51.762;14.320;2023-04-24T07:05:26;2.15;;;1.42;;
7166;SDS011;3625;51.762;14.320;2023-04-24T07:07:56;1.92;;;1.10;;
7166;SDS011;3625;51.762;14.320;2023-04-24T07:10:25;2.83;;;1.10;;
7166;SDS011;3625;51.762;14.320;2023-04-24T07:12:54;1.83;;;1.15;;
7166;SDS011;3625;51.762;14.320;2023-04-24T07:15:23;1.55;;;1.10;;
7166;SDS011;3625;51.762;14.320;2023-04-24T07:17:52;3.10;;;1.20;;
7166;SDS011;3625;51.762;14.320;2023-04-24T07:20:23;1.35;;;1.20;;
7166;SDS011;3625;51.762;14.320;2023-04-24T07:22:52;2.28;;;1.42;;
7166;SDS011;3625;51.762;14.320;2023-04-24T07:25:21;1.75;;;1.10;;
7166;SDS011;3625;51.762;14.320;2023-04-24T07:27:49;1.67;;;1.30;;
7166;SDS011;3625;51.762;14.320;2023-04-24T07:30:18;1.08;;;1.00;;
7166;SDS011;3625;51.762;14.320;2023-04-24T07:32:47;1.27;;;1.17;;
7166;SDS011;3625;51.762;14.320;2023-04-24T07:35:16;3.00;;;1.30;;
7166;SDS011;3625;51.762;14.320;2023-04-24T07:37:47;1.58;;;1.10;;
7166;SDS011;3625;51.762;14.320;2023-04-24T07:40:16;2.10;;;1.17;;
7166;SDS011;3625;51.762;14.320;2023-04-24T07:42:45;1.20;;;1.00;;
7166;SDS011;3625;51.762;14.320;2023-04-24T07:45:14;2.63;;;1.23;;
7166;SDS011;3625;51.762;14.320;2023-04-24T07:47:43;1.65;;;1.55;;
7166;SDS011;3625;51.762;14.320;2023-04-24T07:50:12;1.52;;;1.30;;
7166;SDS011;3625;51.762;14.320;2023-04-24T07:52:41;0.95;;;0.90;;
7166;SDS011;3625;51.762;14.320;2023-04-24T07:55:11;1.15;;;1.00;;
7166;SDS011;3625;51.762;14.320;2023-04-24T07:57:40;1.70;;;1.20;;
7166;SDS011;3625;51.762;14.320;2023-04-24T08:00:09;2.35;;;1.40;;
7166;SDS011;3625;51.762;14.320;2023-04-24T08:02:38;1.25;;;1.15;;
7166;SDS011;3625;51.762;14.320;2023-04-24T08:05:08;1.85;;;1.40;;
7166;SDS011;3625;51.762;14.320;2023-04-24T08:07:37;2.05;;;1.30;;
7166;SDS011;3625;51.762;14.320;2023-04-24T08:10:09;1.40;;;1.17;;
7166;SDS011;3625;51.762;14.320;2023-04-24T08:12:40;2.97;;;1.00;;
7166;SDS011;3625;51.762;14.320;2023-04-24T08:15:09;1.65;;;1.20;;
7166;SDS011;3625;51.762;14.320;2023-04-24T08:17:38;1.90;;;1.00;;
7166;SDS011;3625;51.762;14.320;2023-04-24T08:20:10;2.55;;;1.08;;
7166;SDS011;3625;51.762;14.320;2023-04-24T08:22:41;1.30;;;1.20;;
7166;SDS011;3625;51.762;14.320;2023-04-24T08:25:11;1.30;;;1.20;;
7166;SDS011;3625;51.762;14.320;2023-04-24T08:27:40;1.63;;;1.10;;
7166;SDS011;3625;51.762;14.320;2023-04-24T08:30:10;2.20;;;1.10;;
7166;SDS011;3625;51.762;14.320;2023-04-24T08:32:39;1.77;;;1.10;;
7166;SDS011;3625;51.762;14.320;2023-04-24T08:35:08;0.88;;;0.88;;
7166;SDS011;3625;51.762;14.320;2023-04-24T08:37:37;3.33;;;1.52;;
7166;SDS011;3625;51.762;14.320;2023-04-24T08:40:06;1.05;;;1.00;;
7166;SDS011;3625;51.762;14.320;2023-04-24T08:42:43;1.60;;;1.00;;
7166;SDS011;3625;51.762;14.320;2023-04-24T08:45:12;2.05;;;1.25;;
7166;SDS011;3625;51.762;14.320;2023-04-24T08:47:42;1.33;;;1.00;;
7166;SDS011;3625;51.762;14.320;2023-04-24T08:50:11;5.22;;;1.35;;
7166;SDS011;3625;51.762;14.320;2023-04-24T08:52:41;2.00;;;1.10;;
7166;SDS011;3625;51.762;14.320;2023-04-24T08:55:10;1.70;;;1.08;;
7166;SDS011;3625;51.762;14.320;2023-04-24T08:57:43;1.27;;;1.17;;
7166;SDS011;3625;51.762;14.320;2023-04-24T09:00:14;1.58;;;1.13;;
7166;SDS011;3625;51.762;14.320;2023-04-24T09:02:44;1.98;;;1.30;;
7166;SDS011;3625;51.762;14.320;2023-04-24T09:05:15;1.65;;;1.00;;
7166;SDS011;3625;51.762;14.320;2023-04-24T09:07:45;1.90;;;1.17;;
7166;SDS011;3625;51.762;14.320;2023-04-24T09:10:23;1.67;;;1.00;;
7166;SDS011;3625;51.762;14.320;2023-04-24T09:12:52;1.00;;;0.90;;
7166;SDS011;3625;51.762;14.320;2023-04-24T09:15:22;1.88;;;0.90;;
7166;SDS011;3625;51.762;14.320;2023-04-24T09:17:52;2.70;;;1.15;;
7166;SDS011;3625;51.762;14.320;2023-04-24T09:20:20;0.80;;;0.80;;
7166;SDS011;3625;51.762;14.320;2023-04-24T09:22:52;1.90;;;1.10;;
7166;SDS011;3625;51.762;14.320;2023-04-24T09:25:24;1.40;;;1.30;;
7166;SDS011;3625;51.762;14.320;2023-04-24T09:28:00;1.30;;;0.80;;
7166;SDS011;3625;51.762;14.320;2023-04-24T09:30:30;2.03;;;1.10;;
7166;SDS011;3625;51.762;14.320;2023-04-24T09:33:09;0.90;;;0.80;;
7166;SDS011;3625;51.762;14.320;2023-04-24T09:35:40;0.90;;;0.90;;
7166;SDS011;3625;51.762;14.320;2023-04-24T09:38:10;1.08;;;0.90;;
7166;SDS011;3625;51.762;14.320;2023-04-24T09:40:40;0.80;;;0.80;;
7166;SDS011;3625;51.762;14.320;2023-04-24T09:43:10;2.10;;;1.15;;
7166;SDS011;3625;51.762;14.320;2023-04-24T09:45:39;0.90;;;0.80;;
7166;SDS011;3625;51.762;14.320;2023-04-24T09:48:09;1.13;;;0.90;;
7166;SDS011;3625;51.762;14.320;2023-04-24T09:50:38;1.38;;;1.02;;
7166;SDS011;3625;51.762;14.320;2023-04-24T09:53:07;7.53;;;1.10;;
7166;SDS011;3625;51.762;14.320;2023-04-24T09:55:42;2.35;;;1.00;;
7166;SDS011;3625;51.762;14.320;2023-04-24T09:58:14;1.35;;;1.20;;
7166;SDS011;3625;51.762;14.320;2023-04-24T10:00:43;4.55;;;0.98;;
7166;SDS011;3625;51.762;14.320;2023-04-24T10:03:14;1.10;;;1.05;;
7166;SDS011;3625;51.762;14.320;2023-04-24T10:05:46;2.03;;;1.00;;
7166;SDS011;3625;51.762;14.320;2023-04-24T10:08:15;1.80;;;1.30;;
7166;SDS011;3625;51.762;14.320;2023-04-24T10:10:45;2.08;;;0.90;;
7166;SDS011;3625;51.762;14.320;2023-04-24T10:13:14;1.23;;;1.02;;
7166;SDS011;3625;51.762;14.320;2023-04-24T10:15:43;1.63;;;1.00;;
7166;SDS011;3625;51.762;14.320;2023-04-24T10:18:13;1.90;;;0.90;;
7166;SDS011;3625;51.762;14.320;2023-04-24T10:20:44;2.25;;;1.10;;
7166;SDS011;3625;51.762;14.320;2023-04-24T10:23:13;2.45;;;0.80;;
7166;SDS011;3625;51.762;14.320;2023-04-24T10:25:43;1.30;;;0.95;;
7166;SDS011;3625;51.762;14.320;2023-04-24T10:28:13;1.13;;;0.80;;
7166;SDS011;3625;51.762;14.320;2023-04-24T10:30:42;2.10;;;1.02;;
7166;SDS011;3625;51.762;14.320;2023-04-24T10:33:12;2.05;;;1.08;;
7166;SDS011;3625;51.762;14.320;2023-04-24T10:35:41;1.17;;;0.90;;
7166;SDS011;3625;51.762;14.320;2023-04-24T10:38:17;2.03;;;0.80;;
7166;SDS011;3625;51.762;14.320;2023-04-24T10:40:58;1.58;;;1.00;;
7166;SDS011;3625;51.762;14.320;2023-04-24T10:43:42;2.35;;;0.80;;
7166;SDS011;3625;51.762;14.320;2023-04-24T10:46:11;1.58;;;0.88;;
7166;SDS011;3625;51.762;14.320;2023-04-24T10:48:52;1.33;;;0.90;;
7166;SDS011;3625;51.762;14.320;2023-04-24T10:51:22;1.88;;;1.00;;
7166;SDS011;3625;51.762;14.320;2023-04-24T10:53:52;4.43;;;1.20;;
7166;SDS011;3625;51.762;14.320;2023-04-24T10:56:22;2.25;;;1.15;;
7166;SDS011;3625;51.762;14.320;2023-04-24T10:58:51;1.42;;;0.93;;
7166;SDS011;3625;51.762;14.320;2023-04-24T11:01:25;1.35;;;1.25;;
7166;SDS011;3625;51.762;14.320;2023-04-24T11:03:56;1.55;;;0.90;;
7166;SDS011;3625;51.762;14.320;2023-04-24T11:06:29;1.85;;;0.90;;
7166;SDS011;3625;51.762;14.320;2023-04-24T11:09:03;1.65;;;0.80;;
7166;SDS011;3625;51.762;14.320;2023-04-24T11:11:35;1.33;;;0.90;;
7166;SDS011;3625;51.762;14.320;2023-04-24T11:14:09;2.15;;;1.00;;
7166;SDS011;3625;51.762;14.320;2023-04-24T11:16:42;1.13;;;0.82;;
7166;SDS011;3625;51.762;14.320;2023-04-24T11:19:22;0.90;;;0.80;;
7166;SDS011;3625;51.762;14.320;2023-04-24T11:21:57;0.73;;;0.73;;
7166;SDS011;3625;51.762;14.320;2023-04-24T11:24:29;2.75;;;0.70;;
7166;SDS011;3625;51.762;14.320;2023-04-24T11:27:05;1.10;;;0.77;;
7166;SDS011;3625;51.762;14.320;2023-04-24T11:29:41;2.15;;;1.15;;
7166;SDS011;3625;51.762;14.320;2023-04-24T11:32:18;1.30;;;1.00;;
7166;SDS011;3625;51.762;14.320;2023-04-24T11:34:55;1.85;;;1.00;;
7166;SDS011;3625;51.762;14.320;2023-04-24T11:37:26;1.50;;;1.13;;
7166;SDS011;3625;51.762;14.320;2023-04-24T11:39:57;1.23;;;0.70;;
7166;SDS011;3625;51.762;14.320;2023-04-24T11:42:29;2.70;;;1.00;;
7166;SDS011;3625;51.762;14.320;2023-04-24T11:45:07;1.20;;;1.10;;
7166;SDS011;3625;51.762;14.320;2023-04-24T11:47:37;2.58;;;0.90;;
7166;SDS011;3625;51.762;14.320;2023-04-24T11:50:07;1.10;;;0.93;;
7166;SDS011;3625;51.762;14.320;2023-04-24T11:52:38;0.80;;;0.80;;
7166;SDS011;3625;51.762;14.320;2023-04-24T11:55:09;1.95;;;1.08;;
7166;SDS011;3625;51.762;14.320;2023-04-24T11:57:54;1.55;;;1.00;;
7166;SDS011;3625;51.762;14.320;2023-04-24T12:00:25;1.63;;;1.00;;
7166;SDS011;3625;51.762;14.320;2023-04-24T12:03:03;1.13;;;1.02;;
7166;SDS011;3625;51.762;14.320;2023-04-24T12:05:34;1.75;;;0.90;;
7166;SDS011;3625;51.762;14.320;2023-04-24T12:08:03;1.10;;;0.80;;
7166;SDS011;3625;51.762;14.320;2023-04-24T12:10:33;1.05;;;0.93;;
7166;SDS011;3625;51.762;14.320;2023-04-24T12:13:04;0.90;;;0.80;;
7166;SDS011;3625;51.762;14.320;2023-04-24T12:15:33;1.33;;;0.90;;
7166;SDS011;3625;51.762;14.320;2023-04-24T12:18:03;0.80;;;0.80;;
7166;SDS011;3625;51.762;14.320;2023-04-24T12:20:32;1.00;;;0.80;;
7166;SDS011;3625;51.762;14.320;2023-04-24T12:23:02;1.48;;;0.90;;
7166;SDS011;3625;51.762;14.320;2023-04-24T12:25:32;0.85;;;0.80;;
7166;SDS011;3625;51.762;14.320;2023-04-24T12:28:11;0.70;;;0.70;;
7166;SDS011;3625;51.762;14.320;2023-04-24T12:30:41;0.93;;;0.70;;
7166;SDS011;3625;51.762;14.320;2023-04-24T12:33:12;1.17;;;0.80;;
7166;SDS011;3625;51.762;14.320;2023-04-24T12:35:44;1.92;;;0.80;;
7166;SDS011;3625;51.762;14.320;2023-04-24T12:38:15;0.93;;;0.80;;
7166;SDS011;3625;51.762;14.320;2023-04-24T12:41:00;3.35;;;1.00;;
7166;SDS011;3625;51.762;14.320;2023-04-24T12:43:32;1.10;;;1.00;;
7166;SDS011;3625;51.762;14.320;2023-04-24T12:46:01;0.95;;;0.90;;
7166;SDS011;3625;51.762;14.320;2023-04-24T12:48:30;0.70;;;0.70;;
7166;SDS011;3625;51.762;14.320;2023-04-24T12:50:59;1.35;;;0.82;;
7166;SDS011;3625;51.762;14.320;2023-04-24T12:53:28;1.80;;;1.02;;
7166;SDS011;3625;51.762;14.320;2023-04-24T12:55:57;1.25;;;0.90;;
7166;SDS011;3625;51.762;14.320;2023-04-24T12:58:26;2.20;;;1.00;;
7166;SDS011;3625;51.762;14.320;2023-04-24T13:00:56;0.95;;;0.90;;
7166;SDS011;3625;51.762;14.320;2023-04-24T13:03:25;1.30;;;0.90;;
7166;SDS011;3625;51.762;14.320;2023-04-24T13:05:54;2.78;;;1.08;;
7166;SDS011;3625;51.762;14.320;2023-04-24T13:08:23;1.10;;;1.08;;
7166;SDS011;3625;51.762;14.320;2023-04-24T13:10:52;1.20;;;1.00;;
7166;SDS011;3625;51.762;14.320;2023-04-24T13:13:20;2.70;;;0.95;;
7166;SDS011;3625;51.762;14.320;2023-04-24T13:15:49;1.05;;;0.90;;
7166;SDS011;3625;51.762;14.320;2023-04-24T13:18:19;1.13;;;0.77;;
7166;SDS011;3625;51.762;14.320;2023-04-24T13:20:48;1.90;;;0.98;;
7166;SDS011;3625;51.762;14.320;2023-04-24T13:23:17;1.98;;;0.90;;
7166;SDS011;3625;51.762;14.320;2023-04-24T13:25:46;1.48;;;1.02;;
7166;SDS011;3625;51.762;14.320;2023-04-24T13:28:15;0.75;;;0.75;;
7166;SDS011;3625;51.762;14.320;2023-04-24T13:30:44;1.13;;;0.90;;
7166;SDS011;3625;51.762;14.320;2023-04-24T13:33:17;1.35;;;0.90;;
7166;SDS011;3625;51.762;14.320;2023-04-24T13:35:47;2.33;;;1.02;;
7166;SDS011;3625;51.762;14.320;2023-04-24T13:38:16;1.17;;;1.00;;
7166;SDS011;3625;51.762;14.320;2023-04-24T13:40:47;1.73;;;0.90;;
7166;SDS011;3625;51.762;14.320;2023-04-24T13:43:16;0.88;;;0.80;;
7166;SDS011;3625;51.762;14.320;2023-04-24T13:45:45;3.85;;;1.05;;
7166;SDS011;3625;51.762;14.320;2023-04-24T13:48:14;0.70;;;0.70;;
7166;SDS011;3625;51.762;14.320;2023-04-24T13:50:44;0.70;;;0.70;;
7166;SDS011;3625;51.762;14.320;2023-04-24T13:53:14;0.75;;;0.70;;
7166;SDS011;3625;51.762;14.320;2023-04-24T13:55:43;0.70;;;0.70;;
7166;SDS011;3625;51.762;14.320;2023-04-24T13:58:12;0.90;;;0.90;;
7166;SDS011;3625;51.762;14.320;2023-04-24T14:00:41;1.33;;;0.88;;
7166;SDS011;3625;51.762;14.320;2023-04-24T14:03:10;0.80;;;0.80;;
7166;SDS011;3625;51.762;14.320;2023-04-24T14:05:39;1.08;;;0.88;;
7166;SDS011;3625;51.762;14.320;2023-04-24T14:08:09;1.65;;;1.00;;
7166;SDS011;3625;51.762;14.320;2023-04-24T14:10:38;1.52;;;1.10;;
7166;SDS011;3625;51.762;14.320;2023-04-24T14:13:20;1.73;;;1.13;;
7166;SDS011;3625;51.762;14.320;2023-04-24T14:15:49;1.00;;;1.00;;
7166;SDS011;3625;51.762;14.320;2023-04-24T14:18:19;1.58;;;1.10;;
7166;SDS011;3625;51.762;14.320;2023-04-24T14:20:47;1.25;;;1.15;;
7166;SDS011;3625;51.762;14.320;2023-04-24T14:23:17;1.13;;;1.00;;
7166;SDS011;3625;51.762;14.320;2023-04-24T14:25:47;2.25;;;1.27;;
7166;SDS011;3625;51.762;14.320;2023-04-24T14:28:18;2.10;;;1.17;;
7166;SDS011;3625;51.762;14.320;2023-04-24T14:30:47;1.48;;;1.20;;
7166;SDS011;3625;51.762;14.320;2023-04-24T14:33:16;2.13;;;1.10;;
7166;SDS011;3625;51.762;14.320;2023-04-24T14:35:46;2.70;;;1.40;;
7166;SDS011;3625;51.762;14.320;2023-04-24T14:38:15;1.13;;;1.00;;
7166;SDS011;3625;51.762;14.320;2023-04-24T14:40:45;0.88;;;0.88;;
7166;SDS011;3625;51.762;14.320;2023-04-24T14:43:17;1.40;;;1.30;;
7166;SDS011;3625;51.762;14.320;2023-04-24T14:45:46;0.95;;;0.93;;
7166;SDS011;3625;51.762;14.320;2023-04-24T14:48:16;1.42;;;1.17;;
7166;SDS011;3625;51.762;14.320;2023-04-24T14:50:45;1.27;;;1.17;;
7166;SDS011;3625;51.762;14.320;2023-04-24T14:53:14;1.42;;;1.10;;
7166;SDS011;3625;51.762;14.320;2023-04-24T14:55:44;2.17;;;1.00;;
7166;SDS011;3625;51.762;14.320;2023-04-24T14:58:13;1.65;;;1.10;;
7166;SDS011;3625;51.762;14.320;2023-04-24T15:00:41;1.30;;;1.08;;
7166;SDS011;3625;51.762;14.320;2023-04-24T15:03:10;3.08;;;1.10;;
7166;SDS011;3625;51.762;14.320;2023-04-24T15:05:40;1.65;;;1.20;;
7166;SDS011;3625;51.762;14.320;2023-04-24T15:08:10;1.20;;;1.10;;
7166;SDS011;3625;51.762;14.320;2023-04-24T15:10:38;2.33;;;1.20;;
7166;SDS011;3625;51.762;14.320;2023-04-24T15:13:09;2.50;;;1.00;;
7166;SDS011;3625;51.762;14.320;2023-04-24T15:15:37;1.20;;;1.10;;
7166;SDS011;3625;51.762;14.320;2023-04-24T15:18:07;1.27;;;1.00;;
7166;SDS011;3625;51.762;14.320;2023-04-24T15:20:38;2.08;;;1.55;;
7166;SDS011;3625;51.762;14.320;2023-04-24T15:23:08;1.20;;;1.10;;